Time;durP1;ratioP1;P1;durP2;ratioP2;P2;SDS_P1;SDS_P2;PMS_P1;PMS_P2;Temp;Humidity;BMP_temperature;BMP_pressure;BME280_temperature;BME280_humidity;BME280_pressure;Samples;Min_cycle;Max_cycle;Signal;HPM_P1;HPM_P2
2020/12/12 00:00:28;;;;;;;43.90;23.17;;;;;;;6.37;100.00;100660.53;5011218;28;20174;-75
2020/12/12 00:02:53;;;;;;;49.70;25.80;;;;;;;6.32;100.00;100672.94;5008033;28;20217;-75
2020/12/12 00:05:19;;;;;;;39.93;22.47;;;;;;;6.35;100.00;100675.41;5009734;28;20162;-75
2020/12/12 00:07:44;;;;;;;46.17;23.20;;;;;;;6.44;100.00;100668.88;5013989;28;20166;-74
2020/12/12 00:10:10;;;;;;;41.83;23.30;;;;;;;6.39;100.00;100674.31;5011428;28;20640;-74
2020/12/12 00:12:35;;;;;;;39.80;22.67;;;;;;;6.36;100.00;100669.28;5009722;28;20170;-74
2020/12/12 00:15:05;;;;;;;41.63;22.77;;;;;;;6.33;100.00;100661.59;5012653;28;20174;-74
2020/12/12 00:17:30;;;;;;;43.47;24.00;;;;;;;6.17;100.00;100668.50;5012805;28;20190;-75
2020/12/12 00:19:56;;;;;;;41.73;22.90;;;;;;;6.11;100.00;100664.41;5013155;28;20428;-74
2020/12/12 00:22:22;;;;;;;45.13;23.60;;;;;;;6.19;100.00;100656.22;5013151;28;20197;-75
2020/12/12 00:24:47;;;;;;;51.60;23.50;;;;;;;6.15;100.00;100649.47;5017750;28;20189;-74
2020/12/12 00:27:13;;;;;;;36.60;23.20;;;;;;;6.01;100.00;100652.75;5013930;28;20177;-75
2020/12/12 00:29:38;;;;;;;43.00;22.67;;;;;;;5.98;100.00;100655.53;5012117;28;20633;-74
2020/12/12 00:32:04;;;;;;;43.47;25.37;;;;;;;5.97;100.00;100652.09;5020034;28;20178;-74
2020/12/12 00:34:29;;;;;;;40.17;22.33;;;;;;;5.89;100.00;100637.69;5012552;28;20178;-74
2020/12/12 00:36:55;;;;;;;50.93;24.60;;;;;;;5.93;100.00;100644.47;5012564;28;20728;-74
2020/12/12 00:39:22;;;;;;;44.10;21.17;;;;;;;5.95;100.00;100640.03;5007030;28;20190;-76
2020/12/12 00:41:47;;;;;;;42.40;23.40;;;;;;;5.90;100.00;100636.78;5006943;28;20429;-74
2020/12/12 00:44:15;;;;;;;41.37;22.47;;;;;;;5.94;100.00;100625.31;5012770;28;20486;-75
2020/12/12 00:46:41;;;;;;;47.80;21.73;;;;;;;5.92;100.00;100625.38;5012177;28;20376;-75
2020/12/12 00:49:08;;;;;;;46.80;22.83;;;;;;;5.97;100.00;100619.91;5010934;28;20428;-74
2020/12/12 00:51:34;;;;;;;53.50;26.50;;;;;;;6.09;100.00;100621.94;5021579;28;20432;-74
2020/12/12 00:53:59;;;;;;;43.23;22.50;;;;;;;6.24;100.00;100612.50;5012650;28;20417;-74
2020/12/12 00:56:25;;;;;;;32.43;20.17;;;;;;;6.32;100.00;100610.34;5009515;28;20581;-74
2020/12/12 00:58:51;;;;;;;45.93;20.60;;;;;;;6.42;100.00;100608.09;5009614;28;20269;-75
2020/12/12 01:01:17;;;;;;;31.70;18.10;;;;;;;6.51;100.00;100602.41;4993863;28;20437;-76
2020/12/12 01:03:43;;;;;;;43.07;21.90;;;;;;;6.72;100.00;100600.41;4994560;28;20167;-75
2020/12/12 01:06:18;;;;;;;36.63;20.67;;;;;;;6.59;100.00;100606.31;4993720;28;20437;-75
2020/12/12 01:08:45;;;;;;;33.60;18.73;;;;;;;6.57;100.00;100602.06;4994129;28;20539;-75
2020/12/12 01:11:12;;;;;;;34.70;18.30;;;;;;;6.75;100.00;100592.44;5009377;28;20425;-75
2020/12/12 01:13:38;;;;;;;36.13;17.03;;;;;;;6.88;100.00;100581.25;5011826;28;20871;-74
2020/12/12 01:16:12;;;;;;;32.67;18.33;;;;;;;6.86;100.00;100584.84;5012338;28;20497;-75
2020/12/12 01:18:38;;;;;;;35.67;16.43;;;;;;;6.82;100.00;100570.28;5013956;28;20462;-74
2020/12/12 01:21:04;;;;;;;27.17;16.07;;;;;;;6.82;100.00;100565.91;4988748;28;20429;-74
2020/12/12 01:23:32;;;;;;;31.67;16.53;;;;;;;7.00;100.00;100571.06;4977759;28;20194;-73
2020/12/12 01:25:57;;;;;;;32.17;18.27;;;;;;;7.03;100.00;100565.66;5009116;28;20428;-75
2020/12/12 01:28:23;;;;;;;31.13;16.37;;;;;;;6.97;100.00;100569.47;5012967;28;20417;-75
2020/12/12 01:30:50;;;;;;;34.83;15.77;;;;;;;7.05;100.00;100564.66;5010868;28;20558;-74
2020/12/12 01:33:16;;;;;;;25.60;15.10;;;;;;;7.06;100.00;100557.66;5007704;28;20170;-74
2020/12/12 01:35:42;;;;;;;28.73;15.00;;;;;;;7.04;100.00;100562.97;5011854;28;20488;-74
2020/12/12 01:38:09;;;;;;;30.73;14.30;;;;;;;7.00;100.00;100561.44;5012903;28;20836;-75
2020/12/12 01:40:35;;;;;;;25.23;13.00;;;;;;;7.09;100.00;100560.09;5012574;28;20516;-74
2020/12/12 01:43:01;;;;;;;31.07;15.37;;;;;;;7.08;100.00;100554.03;5011273;28;21030;-74
2020/12/12 01:45:26;;;;;;;25.33;14.67;;;;;;;7.19;100.00;100549.06;5011206;28;20228;-74
2020/12/12 01:47:52;;;;;;;25.13;13.80;;;;;;;7.30;100.00;100552.84;5010565;28;20189;-75
2020/12/12 01:50:17;;;;;;;23.20;13.07;;;;;;;7.39;100.00;100545.31;5014995;28;20178;-73
2020/12/12 01:52:50;;;;;;;25.27;11.37;;;;;;;7.40;100.00;100540.94;5017089;28;20170;-77
2020/12/12 01:55:20;;;;;;;28.00;12.90;;;;;;;7.39;100.00;100537.47;5003661;28;20182;-75
2020/12/12 01:57:51;;;;;;;27.63;12.60;;;;;;;7.36;100.00;100537.66;5002912;28;20499;-76
2020/12/12 02:00:18;;;;;;;22.60;12.30;;;;;;;7.39;100.00;100526.19;5011205;28;20870;-76
2020/12/12 02:02:49;;;;;;;20.43;10.93;;;;;;;7.30;100.00;100522.31;5011698;28;20500;-75
2020/12/12 02:05:39;;;;;;;25.63;11.03;;;;;;;7.36;100.00;100510.69;5011024;28;20409;-75
2020/12/12 02:08:05;;;;;;;17.30;10.20;;;;;;;7.54;100.00;100514.00;5011704;28;20428;-74
2020/12/12 02:10:30;;;;;;;27.87;11.57;;;;;;;7.64;100.00;100521.25;5010924;28;20500;-75
2020/12/12 02:12:56;;;;;;;22.90;11.87;;;;;;;7.64;100.00;100512.56;5011051;28;20424;-74
2020/12/12 02:15:21;;;;;;;25.20;10.40;;;;;;;7.62;100.00;100506.56;5014865;28;20307;-75
2020/12/12 02:17:47;;;;;;;33.23;10.10;;;;;;;7.76;100.00;100514.44;5022857;28;20201;-75
2020/12/12 02:20:13;;;;;;;18.07;9.77;;;;;;;7.80;100.00;100510.72;4994007;28;20182;-75
2020/12/12 02:22:38;;;;;;;14.67;8.13;;;;;;;8.06;100.00;100511.78;5011487;28;20182;-73
2020/12/12 02:25:03;;;;;;;13.30;7.43;;;;;;;8.24;100.00;100504.63;5011208;28;20174;-74
2020/12/12 02:27:29;;;;;;;12.13;7.47;;;;;;;8.43;100.00;100496.50;5011453;28;20257;-75
2020/12/12 02:29:55;;;;;;;9.93;4.40;;;;;;;8.67;100.00;100487.09;5010891;28;20178;-75
2020/12/12 02:32:20;;;;;;;11.20;4.93;;;;;;;8.83;100.00;100481.72;5011377;28;20711;-75
2020/12/12 02:34:46;;;;;;;7.60;4.20;;;;;;;8.96;100.00;100479.16;5009336;28;20228;-75
2020/12/12 02:37:11;;;;;;;9.17;3.97;;;;;;;9.06;100.00;100472.38;5011104;28;20618;-75
2020/12/12 02:39:37;;;;;;;11.80;4.47;;;;;;;9.18;100.00;100477.69;5011490;28;20166;-76
2020/12/12 02:42:02;;;;;;;9.97;4.20;;;;;;;9.27;100.00;100467.53;5011395;28;20544;-75
2020/12/12 02:44:28;;;;;;;9.57;4.40;;;;;;;9.30;100.00;100470.81;5010537;28;20174;-76
2020/12/12 02:46:53;;;;;;;10.40;4.60;;;;;;;9.43;100.00;100470.81;5010253;28;20170;-76
2020/12/12 02:49:19;;;;;;;9.77;3.90;;;;;;;9.52;100.00;100478.09;5009688;28;20221;-76
2020/12/12 02:51:45;;;;;;;9.37;3.80;;;;;;;9.52;100.00;100475.47;5015261;28;20193;-78
2020/12/12 02:54:10;;;;;;;8.23;3.73;;;;;;;9.56;100.00;100466.44;5014288;28;20647;-78
2020/12/12 02:56:36;;;;;;;8.13;3.20;;;;;;;9.60;100.00;100473.19;5011291;28;20515;-79
2020/12/12 02:59:02;;;;;;;8.90;3.57;;;;;;;9.68;100.00;100465.63;5011637;28;20668;-76
2020/12/12 03:01:28;;;;;;;11.03;4.33;;;;;;;9.69;100.00;100464.69;5010539;28;20166;-78
2020/12/12 03:03:53;;;;;;;7.70;3.73;;;;;;;9.80;100.00;100463.94;5011376;28;20460;-77
2020/12/12 03:06:19;;;;;;;8.50;3.70;;;;;;;9.79;100.00;100458.81;5010562;28;20167;-78
2020/12/12 03:08:45;;;;;;;10.00;3.40;;;;;;;9.76;100.00;100454.63;5011532;28;20649;-78
2020/12/12 03:11:10;;;;;;;6.57;3.20;;;;;;;9.81;100.00;100460.38;5011605;28;20174;-78
2020/12/12 03:13:36;;;;;;;8.80;3.90;;;;;;;9.83;100.00;100458.50;5011354;28;20420;-78
2020/12/12 03:16:01;;;;;;;8.63;3.50;;;;;;;9.81;100.00;100456.91;5011239;28;20652;-77
2020/12/12 03:18:27;;;;;;;13.83;4.50;;;;;;;9.82;100.00;100448.09;5011654;28;20167;-77
2020/12/12 03:20:52;;;;;;;10.47;3.83;;;;;;;9.82;100.00;100450.72;5010851;28;20567;-78
2020/12/12 03:23:18;;;;;;;10.10;4.90;;;;;;;9.87;100.00;100452.09;5011760;28;20194;-76
2020/12/12 03:25:44;;;;;;;10.33;4.13;;;;;;;9.90;100.00;100446.66;5011252;28;20652;-77
2020/12/12 03:28:09;;;;;;;8.53;3.37;;;;;;;9.91;100.00;100444.88;5011029;28;20262;-77
2020/12/12 03:30:35;;;;;;;11.37;4.73;;;;;;;9.84;100.00;100444.44;5011463;28;20927;-78
2020/12/12 03:33:01;;;;;;;12.17;4.60;;;;;;;9.80;100.00;100448.19;5011237;28;20660;-76
2020/12/12 03:35:28;;;;;;;9.47;4.00;;;;;;;9.78;100.00;100446.63;5010834;28;20468;-77
2020/12/12 03:37:56;;;;;;;11.13;3.80;;;;;;;9.90;100.00;100445.78;5011191;28;20457;-77
2020/12/12 03:40:23;;;;;;;8.40;4.33;;;;;;;9.93;100.00;100443.81;5011299;28;20456;-77
2020/12/12 03:42:50;;;;;;;9.40;4.90;;;;;;;9.97;100.00;100434.78;5014527;28;20595;-78
2020/12/12 03:45:16;;;;;;;8.50;4.10;;;;;;;9.89;100.00;100436.22;5015020;28;20950;-77
2020/12/12 03:47:41;;;;;;;10.03;3.73;;;;;;;9.94;100.00;100431.50;5014640;28;20417;-78
2020/12/12 03:50:07;;;;;;;12.00;4.87;;;;;;;9.94;100.00;100429.72;5014742;28;20632;-77
2020/12/12 03:52:32;;;;;;;8.70;4.20;;;;;;;9.93;100.00;100433.31;5014229;28;20189;-77
2020/12/12 03:54:58;;;;;;;10.87;4.50;;;;;;;9.95;100.00;100433.19;5015091;28;20178;-79
2020/12/12 03:57:23;;;;;;;9.03;4.70;;;;;;;9.93;100.00;100432.47;5013741;28;20194;-76
2020/12/12 03:59:49;;;;;;;10.70;4.00;;;;;;;9.90;100.00;100435.28;5014769;28;20182;-77
2020/12/12 04:02:14;;;;;;;9.40;4.17;;;;;;;9.94;100.00;100431.50;5014113;28;20171;-76
2020/12/12 04:04:39;;;;;;;9.40;4.73;;;;;;;9.88;100.00;100424.06;5014048;28;20257;-75
2020/12/12 04:07:05;;;;;;;9.90;4.87;;;;;;;9.87;100.00;100433.72;5025823;28;20170;-77
2020/12/12 04:09:30;;;;;;;10.23;4.63;;;;;;;9.91;100.00;100421.25;5014787;28;20183;-77
2020/12/12 04:11:56;;;;;;;9.30;4.23;;;;;;;9.82;100.00;100424.47;5014019;28;20170;-79
2020/12/12 04:14:21;;;;;;;12.90;4.70;;;;;;;9.87;100.00;100420.59;5013985;28;20253;-77
2020/12/12 04:16:49;;;;;;;9.63;5.63;;;;;;;9.86;100.00;100420.72;5013912;28;20692;-77
2020/12/12 04:19:15;;;;;;;7.70;4.20;;;;;;;9.83;100.00;100413.91;5013719;28;20170;-76
2020/12/12 04:21:40;;;;;;;11.67;5.10;;;;;;;9.87;100.00;100417.13;5014037;28;20449;-77
2020/12/12 04:24:06;;;;;;;14.50;5.33;;;;;;;9.84;100.00;100415.56;5014032;28;20205;-77
2020/12/12 04:26:31;;;;;;;12.57;4.20;;;;;;;9.86;100.00;100418.94;5020344;28;20174;-77
2020/12/12 04:28:57;;;;;;;13.30;5.50;;;;;;;9.93;100.00;100416.72;5013410;28;20180;-77
2020/12/12 04:31:22;;;;;;;11.30;5.17;;;;;;;9.90;100.00;100420.41;5014010;28;20170;-77
2020/12/12 04:33:48;;;;;;;13.73;5.33;;;;;;;9.96;100.00;100419.97;5013542;28;20179;-77
2020/12/12 04:36:13;;;;;;;11.27;4.57;;;;;;;10.01;100.00;100409.16;5013327;28;20222;-75
2020/12/12 04:38:39;;;;;;;10.60;4.90;;;;;;;10.01;100.00;100420.50;5013373;28;20168;-76
2020/12/12 04:41:04;;;;;;;10.03;4.33;;;;;;;10.04;100.00;100416.81;5013788;28;20181;-75
2020/12/12 04:43:31;;;;;;;12.13;4.93;;;;;;;10.07;100.00;100413.97;5012592;28;20178;-77
2020/12/12 04:45:58;;;;;;;12.30;5.33;;;;;;;10.12;100.00;100418.88;5013138;28;20181;-79
2020/12/12 04:48:24;;;;;;;13.20;4.77;;;;;;;10.09;100.00;100408.63;5013661;28;20416;-78
2020/12/12 04:50:50;;;;;;;16.13;5.30;;;;;;;10.09;100.00;100417.31;5013363;28;20418;-78
2020/12/12 04:53:17;;;;;;;11.23;5.13;;;;;;;10.14;100.00;100409.13;5012366;28;20715;-77
2020/12/12 04:55:54;;;;;;;11.80;6.10;;;;;;;10.22;100.00;100405.06;5013171;28;20233;-77
2020/12/12 04:58:24;;;;;;;13.20;6.03;;;;;;;10.23;100.00;100413.78;4997929;28;20488;-78
2020/12/12 05:00:53;;;;;;;12.20;5.00;;;;;;;10.23;100.00;100414.59;5013361;28;20408;-78
2020/12/12 05:03:21;;;;;;;22.03;6.40;;;;;;;10.22;100.00;100414.69;5013636;28;20425;-76
2020/12/12 05:05:47;;;;;;;18.03;6.67;;;;;;;10.19;100.00;100413.09;5016149;28;20782;-77
2020/12/12 05:08:13;;;;;;;13.60;5.90;;;;;;;10.26;100.00;100410.91;5013235;28;20425;-78
2020/12/12 05:10:44;;;;;;;16.10;7.37;;;;;;;10.30;100.00;100411.56;5012816;28;20201;-76
2020/12/12 05:13:21;;;;;;;10.50;5.90;;;;;;;10.31;100.00;100410.59;5012733;28;20950;-77
2020/12/12 05:15:48;;;;;;;19.30;6.60;;;;;;;10.37;100.00;100405.75;5015057;28;20416;-77
2020/12/12 05:18:14;;;;;;;11.57;5.57;;;;;;;10.34;100.00;100405.13;5020259;28;20507;-76
2020/12/12 05:20:40;;;;;;;12.67;6.30;;;;;;;10.41;100.00;100404.56;5012822;28;21002;-77
2020/12/12 05:23:11;;;;;;;11.60;5.93;;;;;;;10.47;100.00;100400.69;5012742;28;20429;-79
2020/12/12 05:25:37;;;;;;;16.03;7.47;;;;;;;10.47;100.00;100398.88;5011270;28;20503;-76
2020/12/12 05:28:04;;;;;;;11.93;6.10;;;;;;;10.46;100.00;100393.75;5012825;28;20405;-76
2020/12/12 05:30:30;;;;;;;12.17;5.73;;;;;;;10.34;100.00;100395.44;5015069;28;20937;-76
2020/12/12 05:32:55;;;;;;;14.70;6.90;;;;;;;10.37;100.00;100394.41;5012320;28;20468;-77
2020/12/12 05:35:24;;;;;;;15.40;6.60;;;;;;;10.39;100.00;100395.97;5012459;28;20221;-76
2020/12/12 05:37:50;;;;;;;11.00;6.03;;;;;;;10.41;100.00;100401.94;5019514;28;20288;-77
2020/12/12 05:40:16;;;;;;;17.50;7.17;;;;;;;10.38;100.00;100390.84;5016640;28;20464;-75
2020/12/12 05:42:42;;;;;;;15.87;5.93;;;;;;;10.41;100.00;100387.97;5012409;28;20516;-77
2020/12/12 05:45:08;;;;;;;15.23;7.30;;;;;;;10.47;100.00;100390.16;5012461;28;20170;-78
2020/12/12 05:47:33;;;;;;;15.40;7.63;;;;;;;10.45;100.00;100389.44;5011465;28;20459;-77
2020/12/12 05:50:00;;;;;;;15.40;6.33;;;;;;;10.48;100.00;100379.53;5011856;28;20257;-76
2020/12/12 05:52:28;;;;;;;13.90;7.60;;;;;;;10.55;100.00;100377.31;5012536;28;20252;-76
2020/12/12 05:54:54;;;;;;;16.90;7.50;;;;;;;10.56;100.00;100371.13;5011742;28;20414;-76
2020/12/12 05:57:21;;;;;;;16.43;7.83;;;;;;;10.50;100.00;100375.03;5011221;28;20816;-77
2020/12/12 05:59:47;;;;;;;15.80;7.80;;;;;;;10.48;100.00;100379.53;5012184;28;20174;-78
2020/12/12 06:02:16;;;;;;;13.83;6.80;;;;;;;10.52;100.00;100386.28;5012050;28;20802;-78
2020/12/12 06:04:49;;;;;;;15.73;6.73;;;;;;;10.52;100.00;100382.81;5015156;28;20425;-77
2020/12/12 06:07:27;;;;;;;11.03;5.57;;;;;;;10.51;100.00;100381.13;5011807;28;20413;-77
2020/12/12 06:09:58;;;;;;;18.17;7.20;;;;;;;10.55;100.00;100374.69;5011782;28;20405;-76
2020/12/12 06:12:24;;;;;;;14.03;7.40;;;;;;;10.47;100.00;100387.53;5011863;28;20973;-78
2020/12/12 06:14:54;;;;;;;11.67;6.10;;;;;;;10.50;100.00;100382.06;5012134;28;20433;-77
2020/12/12 06:17:35;;;;;;;13.77;6.10;;;;;;;10.50;100.00;100384.69;5020758;28;20858;-78
2020/12/12 06:20:02;;;;;;;14.63;7.57;;;;;;;10.46;100.00;100380.63;5011606;28;20421;-79
2020/12/12 06:22:30;;;;;;;13.83;5.77;;;;;;;10.53;100.00;100384.47;5010914;28;20459;-77
2020/12/12 06:25:01;;;;;;;12.30;6.43;;;;;;;10.54;100.00;100368.59;5013893;28;20429;-77
2020/12/12 06:27:36;;;;;;;16.23;6.73;;;;;;;10.56;100.00;100373.75;5011767;28;20405;-77
2020/12/12 06:30:06;;;;;;;12.77;6.57;;;;;;;10.56;100.00;100374.56;5011285;28;20425;-77
2020/12/12 06:32:31;;;;;;;14.53;6.60;;;;;;;10.60;100.00;100377.84;5011350;28;20420;-76
2020/12/12 06:34:57;;;;;;;11.60;6.30;;;;;;;10.57;100.00;100365.75;5011375;28;20465;-75
2020/12/12 06:37:33;;;;;;;16.10;7.63;;;;;;;10.66;100.00;100373.94;5010603;28;20198;-78
2020/12/12 06:40:07;;;;;;;14.17;6.73;;;;;;;10.72;100.00;100363.78;5011508;28;20264;-76
2020/12/12 06:42:43;;;;;;;11.33;6.47;;;;;;;10.76;100.00;100370.50;5011821;28;20813;-76
2020/12/12 06:45:18;;;;;;;11.63;6.40;;;;;;;10.75;100.00;100368.81;4994049;28;20429;-77
2020/12/12 06:47:48;;;;;;;15.20;7.40;;;;;;;10.80;100.00;100371.09;5010931;28;20938;-75
2020/12/12 06:50:16;;;;;;;16.17;7.00;;;;;;;10.75;100.00;100375.88;5010603;28;20421;-75
2020/12/12 06:52:43;;;;;;;14.10;6.03;;;;;;;10.81;100.00;100373.63;5007541;28;20898;-76
2020/12/12 06:55:13;;;;;;;16.53;6.50;;;;;;;10.83;100.00;100376.16;5010979;28;20422;-77
2020/12/12 06:57:43;;;;;;;14.53;6.10;;;;;;;10.94;100.00;100377.97;5010418;28;20461;-76
2020/12/12 07:00:34;;;;;;;14.50;6.30;;;;;;;11.02;100.00;100373.81;5011181;28;20795;-75
2020/12/12 07:03:07;;;;;;;15.13;6.13;;;;;;;11.05;100.00;100378.88;5011619;28;20954;-77
2020/12/12 07:05:35;;;;;;;10.53;6.00;;;;;;;11.12;100.00;100371.38;5010807;28;20449;-78
2020/12/12 07:08:07;;;;;;;12.00;6.90;;;;;;;11.11;100.00;100370.53;5009649;28;20421;-77
2020/12/12 07:10:43;;;;;;;10.80;6.00;;;;;;;11.14;100.00;100364.19;5010407;28;20460;-78
2020/12/12 07:13:11;;;;;;;14.70;5.90;;;;;;;11.07;100.00;100366.44;5010759;28;20421;-78
2020/12/12 07:15:38;;;;;;;16.80;6.37;;;;;;;11.05;100.00;100365.72;5007021;28;20438;-76
2020/12/12 07:18:05;;;;;;;11.60;6.13;;;;;;;11.13;100.00;100367.78;5004714;28;20452;-78
2020/12/12 07:20:38;;;;;;;10.73;5.63;;;;;;;11.01;100.00;100368.69;5014990;28;20425;-77
2020/12/12 07:23:05;;;;;;;13.37;7.73;;;;;;;11.04;100.00;100357.94;5014704;28;20472;-78
2020/12/12 07:25:32;;;;;;;10.80;5.33;;;;;;;11.18;100.00;100355.09;5014876;28;20414;-76
2020/12/12 07:27:58;;;;;;;14.70;7.90;;;;;;;11.21;100.00;100354.88;5014518;28;20421;-77
2020/12/12 07:30:24;;;;;;;22.83;6.50;;;;;;;11.30;100.00;100356.81;5014651;28;20855;-78
2020/12/12 07:32:50;;;;;;;12.27;6.57;;;;;;;11.26;100.00;100360.66;5016486;28;21004;-79
2020/12/12 07:35:15;;;;;;;10.43;6.00;;;;;;;11.31;100.00;100355.00;5013813;28;20217;-78
2020/12/12 07:37:41;;;;;;;10.73;5.80;;;;;;;11.27;100.00;100346.53;5014509;28;20748;-77
2020/12/12 07:40:06;;;;;;;14.87;7.00;;;;;;;11.26;100.00;100336.09;5013924;28;20540;-76
2020/12/12 07:42:34;;;;;;;14.90;7.40;;;;;;;11.15;100.00;100336.94;5014333;28;20565;-75
2020/12/12 07:47:48;;;;;;;15.67;6.93;;;;;;;11.12;100.00;100339.81;5003383;28;20429;-75
2020/12/12 07:50:13;;;;;;;12.37;7.07;;;;;;;11.18;100.00;100347.22;5021662;28;20861;-76
2020/12/12 07:52:41;;;;;;;14.33;6.70;;;;;;;11.19;100.00;100346.28;5008933;28;20185;-77
2020/12/12 07:55:08;;;;;;;10.07;5.70;;;;;;;11.24;100.00;100344.13;5014291;28;20246;-77
2020/12/12 07:57:38;;;;;;;16.40;8.50;;;;;;;11.21;100.00;100336.47;5014490;28;20895;-80
2020/12/12 08:00:06;;;;;;;14.47;7.03;;;;;;;11.20;100.00;100344.50;5013599;28;20408;-79
2020/12/12 08:02:31;;;;;;;10.53;6.27;;;;;;;11.33;100.00;100351.31;5013916;28;20453;-76
2020/12/12 08:05:01;;;;;;;14.60;7.20;;;;;;;11.37;100.00;100346.66;5013969;28;20532;-76
2020/12/12 08:07:30;;;;;;;16.20;7.60;;;;;;;11.50;100.00;100349.19;5014337;28;20174;-76
2020/12/12 08:09:55;;;;;;;12.20;6.23;;;;;;;11.56;100.00;100348.69;5013959;28;20413;-77
2020/12/12 08:12:22;;;;;;;15.67;7.40;;;;;;;11.50;100.00;100344.78;5013895;28;20421;-76
2020/12/12 08:14:48;;;;;;;12.77;6.50;;;;;;;11.52;100.00;100340.22;5013344;28;20166;-77
2020/12/12 08:17:13;;;;;;;15.60;6.50;;;;;;;11.43;100.00;100343.56;5012564;28;20959;-77
2020/12/12 08:19:49;;;;;;;12.53;6.80;;;;;;;11.51;100.00;100350.88;5013371;28;20660;-77
2020/12/12 08:22:14;;;;;;;12.57;6.33;;;;;;;11.56;100.00;100346.94;5012592;28;20166;-75
2020/12/12 08:24:42;;;;;;;11.27;5.07;;;;;;;11.46;100.00;100345.13;5012628;28;20810;-78
2020/12/12 08:27:15;;;;;;;11.27;5.37;;;;;;;11.67;100.00;100341.66;5013122;28;20174;-76
2020/12/12 08:29:55;;;;;;;14.50;6.10;;;;;;;11.73;100.00;100335.09;5014038;28;20790;-77
2020/12/12 08:32:39;;;;;;;13.60;6.43;;;;;;;11.71;100.00;100323.81;5013386;28;20405;-75
2020/12/12 08:35:21;;;;;;;12.37;6.33;;;;;;;11.74;100.00;100323.59;5019878;28;20461;-78
2020/12/12 08:38:01;;;;;;;13.57;6.97;;;;;;;11.82;100.00;100307.25;5012289;28;20456;-79
2020/12/12 08:40:42;;;;;;;12.80;6.10;;;;;;;11.94;100.00;100301.03;5013907;28;20432;-78
2020/12/12 08:43:11;;;;;;;11.00;5.97;;;;;;;12.02;100.00;100308.31;5013503;28;20413;-77
2020/12/12 08:45:39;;;;;;;9.63;4.83;;;;;;;11.91;100.00;100299.44;5013431;28;20414;-76
2020/12/12 08:48:04;;;;;;;14.73;5.80;;;;;;;12.07;100.00;100292.97;5013332;28;20467;-79
2020/12/12 08:50:53;;;;;;;10.90;5.20;;;;;;;11.97;100.00;100282.34;5013263;28;20731;-76
2020/12/12 08:53:24;;;;;;;14.60;5.67;;;;;;;11.89;100.00;100277.69;5000084;28;20170;-76
2020/12/12 08:56:03;;;;;;;11.03;5.70;;;;;;;11.93;100.00;100265.94;5013074;28;20409;-77
2020/12/12 08:59:04;;;;;;;9.70;5.70;;;;;;;11.95;100.00;100263.19;5011754;28;20453;-77
2020/12/12 09:01:44;;;;;;;14.57;7.80;;;;;;;12.09;100.00;100260.28;5013991;28;20761;-78
2020/12/12 09:04:10;;;;;;;12.60;6.10;;;;;;;12.08;100.00;100255.13;5004746;28;20424;-75
2020/12/12 09:06:48;;;;;;;12.40;5.40;;;;;;;12.15;100.00;100246.59;5010982;28;20417;-75
2020/12/12 09:09:25;;;;;;;50.73;45.70;;;;;;;12.13;100.00;100250.34;4997663;28;20444;-77
2020/12/12 09:11:57;;;;;;;15.20;10.67;;;;;;;12.22;100.00;100241.69;5012825;28;20516;-75
2020/12/12 09:14:23;;;;;;;12.00;7.17;;;;;;;12.15;100.00;100241.34;5012678;28;20429;-73
2020/12/12 09:16:57;;;;;;;12.47;7.23;;;;;;;12.21;100.00;100224.22;5012557;28;20476;-77
2020/12/12 09:19:23;;;;;;;12.20;6.70;;;;;;;12.33;100.00;100231.13;5012350;28;20401;-74
2020/12/12 09:21:50;;;;;;;15.93;5.90;;;;;;;12.29;100.00;100236.75;5012631;28;20942;-77
2020/12/12 09:24:16;;;;;;;13.40;5.57;;;;;;;12.22;100.00;100226.72;5011810;28;20412;-77
2020/12/12 09:26:42;;;;;;;13.70;5.60;;;;;;;12.21;100.00;100224.22;5008117;28;20421;-79
2020/12/12 09:29:08;;;;;;;11.57;7.07;;;;;;;12.15;100.00;100227.34;5012090;28;20459;-77
2020/12/12 09:31:34;;;;;;;20.20;7.50;;;;;;;12.26;100.00;100231.75;5012505;28;20413;-77
2020/12/12 09:33:59;;;;;;;10.90;5.97;;;;;;;12.33;100.00;100230.28;5012214;28;20165;-78
2020/12/12 09:36:25;;;;;;;13.27;6.80;;;;;;;12.43;100.00;100231.19;5010739;28;20285;-75
2020/12/12 09:38:51;;;;;;;19.47;7.23;;;;;;;12.55;100.00;100227.53;5010437;28;20193;-80
2020/12/12 09:41:16;;;;;;;13.13;6.50;;;;;;;12.65;100.00;100222.31;5011692;28;20171;-78
2020/12/12 09:43:42;;;;;;;11.33;5.07;;;;;;;12.42;100.00;100225.06;5011556;28;20417;-77
2020/12/12 09:46:08;;;;;;;11.83;5.87;;;;;;;12.50;100.00;100219.16;5010674;28;20213;-75
2020/12/12 09:48:35;;;;;;;12.83;5.73;;;;;;;12.50;100.00;100224.44;5011572;28;20170;-74
2020/12/12 09:51:01;;;;;;;18.30;6.97;;;;;;;12.39;100.00;100213.94;5011873;28;20174;-75
2020/12/12 09:53:27;;;;;;;11.03;5.37;;;;;;;12.49;100.00;100210.44;5005323;28;20444;-76
2020/12/12 09:55:53;;;;;;;12.00;5.67;;;;;;;12.49;100.00;100199.06;5007174;28;20191;-76
2020/12/12 09:58:20;;;;;;;12.90;5.37;;;;;;;12.52;100.00;100196.16;5010629;28;20221;-76
2020/12/12 10:00:45;;;;;;;14.10;6.77;;;;;;;12.37;100.00;100193.00;5011439;28;20511;-74
2020/12/12 10:03:11;;;;;;;15.03;7.00;;;;;;;12.52;100.00;100182.16;5011004;28;20504;-75
2020/12/12 10:05:37;;;;;;;18.63;8.80;;;;;;;12.59;100.00;100180.66;5011226;28;20190;-80
2020/12/12 10:08:04;;;;;;;11.17;5.80;;;;;;;12.58;100.00;100176.38;5010981;28;20542;-75
2020/12/12 10:10:30;;;;;;;8.33;4.93;;;;;;;12.58;100.00;100173.72;5011601;28;20628;-80
2020/12/12 10:12:56;;;;;;;14.10;5.73;;;;;;;12.70;100.00;100177.97;5011946;28;20417;-74
2020/12/12 10:15:22;;;;;;;12.87;6.23;;;;;;;12.76;100.00;100172.16;5011217;28;20508;-78
2020/12/12 10:17:49;;;;;;;13.03;6.20;;;;;;;12.76;100.00;100183.53;5011551;28;20667;-80
2020/12/12 10:20:15;;;;;;;12.20;5.50;;;;;;;12.58;100.00;100177.19;5007059;28;20452;-76
2020/12/12 10:22:41;;;;;;;17.03;6.47;;;;;;;12.42;100.00;100180.28;5011033;28;20420;-74
2020/12/12 10:25:08;;;;;;;11.53;5.10;;;;;;;12.42;100.00;100175.03;5011253;28;20417;-77
2020/12/12 10:27:34;;;;;;;10.00;4.80;;;;;;;12.41;100.00;100189.16;5011355;28;20214;-75
2020/12/12 10:30:00;;;;;;;9.30;4.67;;;;;;;12.32;100.00;100189.06;5011362;28;20792;-75
2020/12/12 10:32:25;;;;;;;14.67;6.50;;;;;;;12.24;100.00;100179.16;5011263;28;20924;-79
2020/12/12 10:34:53;;;;;;;14.17;5.33;;;;;;;12.11;100.00;100181.16;5010490;28;20210;-77
2020/12/12 10:37:19;;;;;;;11.73;6.03;;;;;;;12.02;100.00;100180.13;5006697;28;20186;-78
2020/12/12 10:39:54;;;;;;;14.53;5.30;;;;;;;12.04;100.00;100174.72;5009692;28;20422;-77
2020/12/12 10:42:19;;;;;;;9.50;5.43;;;;;;;11.90;100.00;100173.22;5009920;28;20169;-77
2020/12/12 10:44:45;;;;;;;12.97;4.83;;;;;;;11.82;100.00;100168.56;5010425;28;20512;-77
2020/12/12 10:47:11;;;;;;;11.27;5.03;;;;;;;11.91;100.00;100157.28;5006160;28;20174;-75
2020/12/12 10:49:36;;;;;;;12.30;5.17;;;;;;;11.90;100.00;100152.16;5008417;28;20757;-74
2020/12/12 10:52:02;;;;;;;13.90;6.20;;;;;;;11.87;100.00;100144.53;5010153;28;20269;-76
2020/12/12 10:54:28;;;;;;;12.87;5.90;;;;;;;11.85;100.00;100149.88;5014632;28;20670;-73
2020/12/12 10:56:55;;;;;;;13.23;5.67;;;;;;;11.97;100.00;100134.06;5015360;28;20537;-73
2020/12/12 10:59:20;;;;;;;11.00;5.03;;;;;;;11.99;100.00;100125.06;5001915;28;20436;-73
2020/12/12 11:01:51;;;;;;;12.93;5.00;;;;;;;11.91;100.00;100132.75;5016590;28;20436;-77
2020/12/12 11:04:17;;;;;;;12.73;5.83;;;;;;;11.82;100.00;100129.09;5017428;28;20170;-75
2020/12/12 11:06:42;;;;;;;9.70;5.13;;;;;;;11.74;100.00;100126.22;5017144;28;20428;-75
2020/12/12 11:09:07;;;;;;;8.63;4.77;;;;;;;11.70;100.00;100123.94;5017552;28;20198;-74
2020/12/12 11:11:37;;;;;;;14.23;6.40;;;;;;;11.67;100.00;100123.25;5017454;28;20162;-74
2020/12/12 11:14:03;;;;;;;10.43;4.33;;;;;;;11.56;100.00;100123.31;5017178;28;20263;-74
2020/12/12 11:16:28;;;;;;;15.13;5.93;;;;;;;11.63;100.00;100120.97;5017336;28;20480;-76